Time;durP1;ratioP1;P1;durP2;ratioP2;P2;SDS_P1;SDS_P2;PMS_P1;PMS_P2;Temp;Humidity;BMP_temperature;BMP_pressure;BME280_temperature;BME280_humidity;BME280_pressure;Samples;Min_cycle;Max_cycle;Signal;HPM_P1;HPM_P2
2022/09/18 00:01:21;;;;;;;9.68;4.05;;;;;;;10.82;92.57;97855.84;1746653;82;20953;-42
2022/09/18 00:03:47;;;;;;;10.60;4.37;;;;;;;10.79;92.56;97860.88;1746695;82;20961;-42
2022/09/18 00:06:21;;;;;;;11.15;4.10;;;;;;;10.73;93.27;97858.72;1748665;81;21497;-42
2022/09/18 00:08:51;;;;;;;14.78;4.22;;;;;;;10.73;92.57;97863.52;1752119;82;20995;-42
2022/09/18 00:11:19;;;;;;;10.58;4.28;;;;;;;10.72;91.98;97863.63;1752111;82;20992;-42
2022/09/18 00:13:46;;;;;;;9.55;4.58;;;;;;;10.68;92.82;97866.98;1752189;82;21034;-42
2022/09/18 00:16:14;;;;;;;9.30;3.62;;;;;;;10.72;91.64;97870.20;1751999;82;21050;-42
2022/09/18 00:18:41;;;;;;;12.33;4.42;;;;;;;10.70;91.80;97868.18;1752170;82;20990;-42
2022/09/18 00:21:12;;;;;;;10.65;4.55;;;;;;;10.68;92.14;97872.73;1752230;82;20991;-42
2022/09/18 00:23:39;;;;;;;10.25;3.77;;;;;;;10.69;91.87;97873.89;1752083;82;20987;-42
2022/09/18 00:26:06;;;;;;;11.88;4.03;;;;;;;10.68;92.11;97876.19;1752253;82;20987;-42
2022/09/18 00:28:32;;;;;;;;;;;;;;;10.66;92.03;97879.87;1754717;82;21461;-42
2022/09/18 00:31:07;;;;;;;10.40;4.55;;;;;;;10.63;91.61;97867.81;1752399;82;20455;-42
2022/09/18 00:33:34;;;;;;;16.37;4.20;;;;;;;10.61;91.56;97867.59;1752111;82;20995;-42
2022/09/18 00:36:02;;;;;;;15.55;4.05;;;;;;;10.50;92.98;97868.42;1752232;82;21854;-42
2022/09/18 00:38:31;;;;;;;14.05;3.98;;;;;;;10.53;92.44;97870.79;1752148;82;20983;-42
2022/09/18 00:40:59;;;;;;;15.50;4.33;;;;;;;10.52;92.67;97871.77;1752072;82;20994;-42
2022/09/18 00:43:29;;;;;;;11.75;4.10;;;;;;;10.55;92.31;97874.98;1751370;82;21039;-42
2022/09/18 00:46:09;;;;;;;15.00;3.37;;;;;;;10.55;92.51;97872.36;1752161;82;20983;-42
2022/09/18 00:49:05;;;;;;;10.25;3.40;;;;;;;10.53;92.54;97874.73;1749444;82;21014;-42
2022/09/18 00:51:34;;;;;;;10.05;3.58;;;;;;;10.52;92.06;97875.70;1752269;82;21047;-42
2022/09/18 00:54:20;;;;;;;10.88;4.10;;;;;;;10.47;92.82;97880.48;1752224;82;20976;-41
2022/09/18 00:56:47;;;;;;;10.55;3.45;;;;;;;10.51;92.21;97874.02;1752049;82;21568;-42
2022/09/18 00:59:18;;;;;;;9.95;3.62;;;;;;;10.50;92.22;97878.45;1752061;82;21321;-42
2022/09/18 01:01:44;;;;;;;11.85;3.60;;;;;;;10.50;92.08;97876.31;1752047;82;21148;-42
2022/09/18 01:04:11;;;;;;;9.53;3.10;;;;;;;10.54;91.28;97875.11;1752089;82;20991;-42
2022/09/18 01:06:51;;;;;;;8.77;3.57;;;;;;;10.50;91.12;97877.62;1749827;82;21018;-42
2022/09/18 01:09:41;;;;;;;8.75;3.30;;;;;;;10.47;91.11;97876.53;1717563;82;20975;-42
2022/09/18 01:12:37;;;;;;;8.35;3.02;;;;;;;10.47;91.20;97871.28;1746545;82;21030;-42
2022/09/18 01:15:20;;;;;;;7.15;2.83;;;;;;;10.48;90.95;97873.80;1746659;82;21485;-42
2022/09/18 01:18:18;;;;;;;8.93;3.22;;;;;;;10.46;90.72;97872.22;1737550;82;20986;-42
2022/09/18 01:21:12;;;;;;;9.65;2.90;;;;;;;10.46;90.40;97878.80;1748556;82;20975;-42
2022/09/18 01:24:05;;;;;;;7.45;2.62;;;;;;;10.44;89.86;97874.99;1746563;82;21491;-42
2022/09/18 01:26:58;;;;;;;9.10;3.02;;;;;;;10.40;89.83;97880.59;1746466;82;20968;-42
2022/09/18 01:29:32;;;;;;;9.73;2.72;;;;;;;10.37;89.73;97879.88;1745301;81;20984;-42
2022/09/18 01:32:04;;;;;;;6.45;2.58;;;;;;;10.38;89.47;97884.16;1745940;82;21900;-42
2022/09/18 01:34:45;;;;;;;5.72;2.40;;;;;;;10.42;89.25;97886.56;1746465;82;21032;-42
2022/09/18 01:37:42;;;;;;;9.30;2.27;;;;;;;10.42;88.62;97889.19;1746456;82;20968;-42
2022/09/18 01:40:16;;;;;;;;;;;;;;;10.44;88.36;97888.59;1749037;82;21042;-42
2022/09/18 01:42:46;;;;;;;3.25;1.80;;;;;;;10.35;87.99;97887.05;1746017;82;20130;-42
2022/09/18 01:45:16;;;;;;;6.70;2.10;;;;;;;10.36;87.83;97890.02;1746447;82;20956;-42
2022/09/18 01:47:56;;;;;;;7.85;2.40;;;;;;;10.32;86.95;97887.27;1746437;82;20992;-42
2022/09/18 01:50:26;;;;;;;6.08;1.95;;;;;;;10.30;86.83;97887.84;1746458;82;21043;-42
2022/09/18 01:53:24;;;;;;;7.58;1.95;;;;;;;10.30;86.58;97885.21;1746461;81;21023;-42
2022/09/18 01:56:07;;;;;;;5.70;1.70;;;;;;;10.31;85.97;97881.64;1745940;82;20948;-42
2022/09/18 01:58:33;;;;;;;2.90;1.90;;;;;;;10.26;85.06;97877.21;1725029;82;21015;-42
2022/09/18 02:01:04;;;;;;;3.00;1.57;;;;;;;10.26;84.31;97875.04;1746701;82;21461;-42
2022/09/18 02:03:41;;;;;;;3.37;1.52;;;;;;;10.32;84.76;97884.64;1746474;82;21047;-42
2022/09/18 02:06:21;;;;;;;5.78;1.50;;;;;;;10.30;84.23;97873.39;1746408;82;21082;-42
2022/09/18 02:08:54;;;;;;;3.70;1.32;;;;;;;10.25;83.20;97878.16;1746469;82;21000;-42
2022/09/18 02:11:21;;;;;;;4.53;1.30;;;;;;;10.26;83.09;97874.59;1746436;82;21031;-41
2022/09/18 02:13:55;;;;;;;4.37;1.35;;;;;;;10.21;82.29;97876.72;1725454;82;21501;-42
2022/09/18 02:16:29;;;;;;;3.15;1.17;;;;;;;10.21;81.68;97878.03;1746404;82;21019;-42
2022/09/18 02:18:59;;;;;;;2.65;1.07;;;;;;;10.20;81.43;97890.80;1746457;82;20996;-42
2022/09/18 02:21:29;;;;;;;3.33;1.10;;;;;;;10.21;81.51;97884.60;1746423;82;21000;-42
2022/09/18 02:24:04;;;;;;;4.10;1.45;;;;;;;10.23;81.93;97881.86;1746433;82;20992;-42
2022/09/18 02:26:32;;;;;;;2.55;1.22;;;;;;;10.23;81.63;97886.63;1746429;82;20996;-42
2022/09/18 02:28:59;;;;;;;2.85;1.20;;;;;;;10.19;81.15;97879.95;1746478;82;20991;-42
2022/09/18 02:31:25;;;;;;;3.92;1.15;;;;;;;10.19;81.04;97874.20;1725142;82;20956;-42
2022/09/18 02:33:52;;;;;;;4.45;1.22;;;;;;;10.15;80.41;97872.78;1746407;82;20991;-42
2022/09/18 02:36:38;;;;;;;5.93;1.27;;;;;;;10.12;80.33;97882.20;1746678;82;20999;-42
2022/09/18 02:39:39;;;;;;;6.30;1.30;;;;;;;10.11;79.84;97875.73;1746114;82;20956;-42
2022/09/18 02:43:58;;;;;;;1.52;0.85;;;;;;;10.07;78.21;97869.05;1795406;79;22111;-40
2022/09/18 02:46:48;;;;;;;4.45;1.30;;;;;;;10.03;78.82;97870.25;1758613;81;21047;-40
2022/09/18 02:49:34;;;;;;;3.45;1.15;;;;;;;10.02;79.15;97861.99;1759523;81;21511;-40
2022/09/18 02:52:13;;;;;;;9.38;1.42;;;;;;;9.93;78.68;97866.14;1760455;81;21018;-40
2022/09/18 02:54:44;;;;;;;6.08;1.12;;;;;;;9.88;78.36;97863.88;1760326;81;21034;-40
2022/09/18 02:57:20;;;;;;;2.42;1.17;;;;;;;9.88;78.67;97865.68;1759961;81;21483;-40
2022/09/18 02:59:53;;;;;;;3.02;0.95;;;;;;;9.80;78.43;97868.41;1760329;81;21014;-40
2022/09/18 03:02:21;;;;;;;5.12;1.35;;;;;;;9.88;79.10;97870.45;1730615;81;20951;-40
2022/09/18 03:04:48;;;;;;;2.58;1.17;;;;;;;9.78;78.89;97865.52;1760357;81;20994;-40
2022/09/18 03:07:15;;;;;;;5.03;1.30;;;;;;;9.71;78.45;97867.75;1760445;81;21038;-40
2022/09/18 03:09:45;;;;;;;4.37;1.02;;;;;;;9.71;78.84;97865.61;1760347;80;20974;-42
2022/09/18 03:12:12;;;;;;;3.58;1.35;;;;;;;9.74;79.32;97871.95;1760295;80;20991;-40
2022/09/18 03:14:38;;;;;;;5.10;1.35;;;;;;;9.71;78.96;97872.17;1760389;81;20995;-40
2022/09/18 03:17:04;;;;;;;6.20;1.32;;;;;;;9.66;78.87;97874.30;1760201;81;20983;-40
2022/09/18 03:19:30;;;;;;;3.97;1.17;;;;;;;9.70;79.26;97878.39;1760445;81;21030;-40
2022/09/18 03:21:56;;;;;;;3.55;1.27;;;;;;;9.67;79.05;97879.44;1760260;81;20963;-40
2022/09/18 03:24:24;;;;;;;3.55;1.20;;;;;;;9.63;79.13;97879.80;1760134;81;21023;-40
2022/09/18 03:26:50;;;;;;;;;;;;;;;9.63;79.41;97878.00;1762707;81;20983;-40
2022/09/18 03:29:16;;;;;;;3.70;1.12;;;;;;;9.57;79.47;97875.36;1760389;81;20415;-40
2022/09/18 03:31:42;;;;;;;2.87;1.30;;;;;;;9.58;79.60;97873.56;1760234;81;20979;-40
2022/09/18 03:34:09;;;;;;;2.92;1.20;;;;;;;9.55;79.70;97872.02;1760208;81;20995;-40
2022/09/18 03:36:35;;;;;;;4.85;1.60;;;;;;;9.50;79.80;97882.00;1760170;81;20971;-40
2022/09/18 03:39:00;;;;;;;5.75;1.50;;;;;;;9.48;80.11;97883.91;1760142;80;20983;-40
2022/09/18 03:41:26;;;;;;;5.40;1.82;;;;;;;9.47;80.09;97878.28;1759408;81;20991;-40
2022/09/18 03:43:52;;;;;;;4.70;1.37;;;;;;;9.49;80.19;97876.38;1752689;81;21347;-42
2022/09/18 03:46:22;;;;;;;4.08;1.37;;;;;;;9.50;80.53;97881.17;1752671;82;21033;-40
2022/09/18 03:48:46;;;;;;;4.92;1.20;;;;;;;9.48;80.59;97876.03;1752206;82;21552;-40
2022/09/18 03:51:11;;;;;;;8.00;1.60;;;;;;;9.45;80.68;97874.11;1752712;82;20988;-40
2022/09/18 03:53:39;;;;;;;7.60;2.17;;;;;;;9.47;80.53;97875.66;1752618;82;21030;-40
2022/09/18 03:56:05;;;;;;;3.70;1.37;;;;;;;9.45;80.58;97876.25;1752364;81;20948;-40
2022/09/18 03:58:31;;;;;;;6.10;1.37;;;;;;;9.37;80.87;97871.57;1752135;81;21023;-40
2022/09/18 04:00:56;;;;;;;7.20;1.50;;;;;;;9.34;81.19;97870.47;1752152;82;21466;-40
2022/09/18 04:03:22;;;;;;;5.15;1.50;;;;;;;9.34;80.98;97871.78;1752115;82;20995;-40
2022/09/18 04:05:49;;;;;;;3.40;1.30;;;;;;;9.31;81.37;97861.99;1752117;81;20991;-40
2022/09/18 04:08:16;;;;;;;6.97;2.20;;;;;;;9.31;81.12;97865.92;1752171;81;20999;-40
2022/09/18 04:10:42;;;;;;;5.12;1.52;;;;;;;9.26;81.28;97867.59;1752578;82;21019;-40
2022/09/18 04:13:08;;;;;;;6.42;1.92;;;;;;;9.23;81.72;97871.25;1752128;82;21435;-40
2022/09/18 04:15:34;;;;;;;4.08;1.50;;;;;;;9.19;81.47;97871.60;1752148;82;20988;-40
2022/09/18 04:17:59;;;;;;;4.50;1.50;;;;;;;9.17;81.96;97866.95;1752121;82;21026;-40
2022/09/18 04:20:25;;;;;;;8.00;1.98;;;;;;;9.15;81.85;97867.05;1752168;82;20988;-40
2022/09/18 04:22:51;;;;;;;6.28;1.82;;;;;;;9.11;82.22;97872.13;1752097;82;20987;-40
2022/09/18 04:25:17;;;;;;;6.08;2.08;;;;;;;9.09;82.27;97865.34;1752165;82;21429;-40
2022/09/18 04:27:42;;;;;;;6.50;1.40;;;;;;;9.02;83.14;97871.48;1752184;82;21600;-40
2022/09/18 04:30:10;;;;;;;5.92;1.95;;;;;;;9.01;82.97;97869.83;1752118;82;21031;-41
2022/09/18 04:32:35;;;;;;;5.67;2.00;;;;;;;8.95;83.32;97867.63;1752223;82;20983;-40
2022/09/18 04:35:01;;;;;;;4.30;2.22;;;;;;;8.96;83.40;97873.25;1752121;82;20984;-40
2022/09/18 04:37:27;;;;;;;8.88;2.20;;;;;;;8.96;83.42;97870.62;1752060;81;21055;-41
2022/09/18 04:39:53;;;;;;;3.65;1.72;;;;;;;8.96;83.49;97877.18;1752226;81;20991;-41
2022/09/18 04:42:19;;;;;;;5.50;2.00;;;;;;;8.97;83.49;97885.42;1752028;82;21455;-40
2022/09/18 04:44:44;;;;;;;4.03;1.92;;;;;;;8.97;83.55;97886.73;1752200;82;21507;-40
2022/09/18 04:47:10;;;;;;;5.17;2.55;;;;;;;8.90;83.65;97890.25;1752222;82;21448;-41
2022/09/18 04:49:36;;;;;;;6.45;2.10;;;;;;;8.91;83.65;97889.29;1752147;81;20987;-40
2022/09/18 04:52:02;;;;;;;9.93;2.67;;;;;;;8.91;83.58;97892.39;1752069;82;20991;-40
2022/09/18 04:54:27;;;;;;;6.30;2.00;;;;;;;8.87;84.10;97893.56;1752110;81;21018;-40
2022/09/18 04:56:53;;;;;;;10.95;2.30;;;;;;;8.86;84.40;97898.43;1752100;82;20968;-40
2022/09/18 04:59:19;;;;;;;8.30;2.30;;;;;;;8.86;84.01;97895.80;1752076;82;20995;-40
2022/09/18 05:01:44;;;;;;;10.80;2.60;;;;;;;8.86;84.01;97897.12;1752159;81;20967;-39
2022/09/18 05:04:11;;;;;;;12.25;2.77;;;;;;;8.82;84.29;97900.42;1752088;82;21035;-40
2022/09/18 05:06:37;;;;;;;9.48;2.50;;;;;;;8.78;84.62;97907.67;1751991;82;21038;-41
2022/09/18 05:09:02;;;;;;;4.97;2.62;;;;;;;8.80;84.16;97904.49;1752100;81;20999;-40
2022/09/18 05:11:28;;;;;;;7.85;2.98;;;;;;;8.80;84.60;97905.80;1752063;82;20968;-40
2022/09/18 05:13:55;;;;;;;7.22;2.58;;;;;;;8.79;84.81;97911.98;1752082;81;20995;-40
2022/09/18 05:16:23;;;;;;;13.72;2.75;;;;;;;8.77;85.29;97909.94;1752195;82;20994;-40
2022/09/18 05:18:51;;;;;;;11.70;2.70;;;;;;;8.83;84.92;97905.56;1751474;82;20979;-40
2022/09/18 05:21:17;;;;;;;;;;;;;;;8.90;84.65;97906.47;1754774;82;21511;-40
2022/09/18 05:23:44;;;;;;;12.07;2.75;;;;;;;8.92;84.56;97906.70;1752090;82;20134;-40
2022/09/18 05:26:10;;;;;;;5.90;2.40;;;;;;;8.96;84.46;97903.40;1752311;82;20983;-40
2022/09/18 05:28:37;;;;;;;8.37;2.50;;;;;;;8.97;84.32;97907.70;1752336;82;21030;-40
2022/09/18 05:31:03;;;;;;;5.33;2.20;;;;;;;8.87;85.10;97905.36;1752346;82;21496;-40
2022/09/18 05:33:29;;;;;;;5.83;2.10;;;;;;;8.91;84.85;97902.88;1752040;81;21321;-41
2022/09/18 05:35:57;;;;;;;8.65;2.20;;;;;;;8.81;85.12;97898.29;1752064;81;20948;-41
2022/09/18 05:38:26;;;;;;;9.33;3.17;;;;;;;8.88;84.83;97913.13;1752195;81;21018;-40
2022/09/18 05:40:52;;;;;;;6.55;2.35;;;;;;;8.90;84.69;97907.30;1752058;82;20987;-40
2022/09/18 05:43:17;;;;;;;4.30;2.10;;;;;;;8.88;85.11;97905.70;1748474;82;21023;-40
2022/09/18 05:45:44;;;;;;;8.43;2.62;;;;;;;8.91;84.81;97901.57;1746496;82;20992;-41
2022/09/18 05:48:13;;;;;;;7.35;2.20;;;;;;;8.89;85.22;97907.39;1746670;82;21011;-41
2022/09/18 05:50:41;;;;;;;7.97;2.30;;;;;;;8.94;84.75;97905.30;1746741;82;21043;-40
2022/09/18 05:53:10;;;;;;;;;;;;;;;8.94;84.82;97906.61;1749104;82;21469;-42
2022/09/18 05:55:36;;;;;;;7.47;2.20;;;;;;;8.96;84.78;97906.02;1745567;82;20110;-41
2022/09/18 05:58:04;;;;;;;10.60;2.85;;;;;;;9.02;84.59;97904.26;1746533;82;21437;-40
2022/09/18 06:00:33;;;;;;;4.75;2.33;;;;;;;9.05;84.28;97904.05;1746468;82;20984;-41
2022/09/18 06:03:02;;;;;;;12.68;2.60;;;;;;;9.04;84.75;97908.95;1746490;81;21046;-40
2022/09/18 06:05:31;;;;;;;6.03;2.17;;;;;;;9.08;84.50;97909.09;1745568;82;20984;-40
2022/09/18 06:07:58;;;;;;;4.15;1.87;;;;;;;8.98;84.91;97908.88;1746492;82;21031;-40
2022/09/18 06:10:24;;;;;;;6.22;2.50;;;;;;;9.00;85.01;97915.34;1746572;82;20983;-40
2022/09/18 06:13:14;;;;;;;5.55;2.20;;;;;;;9.04;84.69;97912.88;1746501;82;21465;-40
2022/09/18 06:15:46;;;;;;;3.85;2.45;;;;;;;9.04;84.85;97922.06;1746392;81;21460;-40
2022/09/18 06:18:13;;;;;;;7.28;2.40;;;;;;;9.10;84.85;97915.05;1746627;82;21034;-41
2022/09/18 06:20:44;;;;;;;5.78;2.58;;;;;;;9.12;84.63;97920.20;1746687;82;21026;-41
2022/09/18 06:23:10;;;;;;;4.12;2.40;;;;;;;9.19;84.18;97922.75;1725519;82;21027;-40
2022/09/18 06:25:36;;;;;;;5.53;2.37;;;;;;;9.18;84.08;97917.95;1746513;82;20990;-40
2022/09/18 06:28:03;;;;;;;5.28;2.87;;;;;;;9.20;84.31;97921.33;1746566;82;21464;-41
2022/09/18 06:30:33;;;;;;;6.05;2.90;;;;;;;9.23;84.38;97926.82;1746781;82;20991;-40
2022/09/18 06:33:01;;;;;;;10.43;2.70;;;;;;;9.27;84.31;97924.81;1746372;82;21615;-40
2022/09/18 06:35:27;;;;;;;5.17;3.27;;;;;;;9.32;84.30;97926.64;1746450;82;21000;-40
2022/09/18 06:37:53;;;;;;;5.62;3.00;;;;;;;9.33;84.33;97923.91;1746673;82;21490;-41
2022/09/18 06:40:18;;;;;;;5.78;3.20;;;;;;;9.31;84.39;97921.84;1746468;82;21027;-40
2022/09/18 06:42:44;;;;;;;7.28;3.52;;;;;;;9.33;84.25;97934.41;1746373;82;21016;-40
2022/09/18 06:45:11;;;;;;;9.93;3.87;;;;;;;9.30;84.42;97928.54;1746636;82;20975;-40
2022/09/18 06:47:36;;;;;;;6.83;3.40;;;;;;;9.32;84.49;97934.03;1746497;82;21586;-41
2022/09/18 06:50:03;;;;;;;6.65;4.22;;;;;;;9.24;84.70;97929.82;1746434;81;21118;-40
2022/09/18 06:52:30;;;;;;;5.42;4.08;;;;;;;9.28;84.59;97935.20;1746460;82;21465;-40
2022/09/18 06:54:56;;;;;;;;;;;;;;;9.23;84.38;97934.20;1749030;82;21407;-48
2022/09/18 06:57:22;;;;;;;8.73;4.17;;;;;;;9.23;84.36;97935.52;1746682;82;20102;-40
2022/09/18 06:59:48;;;;;;;6.33;3.80;;;;;;;9.27;84.40;97934.00;1746470;82;20987;-40
2022/09/18 07:02:14;;;;;;;4.87;4.15;;;;;;;9.26;84.52;97931.86;1746432;82;20992;-40
2022/09/18 07:04:40;;;;;;;6.53;4.05;;;;;;;9.29;84.55;97938.17;1746447;82;21014;-40
2022/09/18 07:07:07;;;;;;;6.08;4.22;;;;;;;9.23;84.29;97942.56;1746451;82;20952;-40
2022/09/18 07:09:33;;;;;;;5.03;4.15;;;;;;;9.23;84.60;97944.70;1746528;81;20976;-41
2022/09/18 07:11:59;;;;;;;6.55;3.90;;;;;;;9.28;84.27;97941.77;1746548;82;21477;-40
2022/09/18 07:14:24;;;;;;;5.40;4.05;;;;;;;9.27;84.53;97937.93;1746445;82;20992;-40
2022/09/18 07:16:50;;;;;;;8.30;4.10;;;;;;;9.28;84.73;97940.90;1746450;82;21027;-40
2022/09/18 07:19:16;;;;;;;3.85;3.50;;;;;;;9.37;84.10;97938.95;1746456;82;20971;-40
2022/09/18 07:21:42;;;;;;;8.58;3.90;;;;;;;9.43;84.09;97943.75;1746390;81;20987;-40
2022/09/18 07:24:08;;;;;;;6.15;3.58;;;;;;;9.48;83.86;97937.70;1746376;82;20995;-40
2022/09/18 07:26:34;;;;;;;5.35;4.12;;;;;;;9.55;83.92;97941.55;1746452;82;21051;-40
2022/09/18 07:28:59;;;;;;;5.67;3.75;;;;;;;9.63;83.71;97939.68;1746621;82;20983;-40
2022/09/18 07:31:25;;;;;;;6.30;3.58;;;;;;;9.72;83.40;97931.61;1746599;82;20992;-41
2022/09/18 07:33:55;;;;;;;5.35;3.70;;;;;;;9.88;83.30;97943.14;1746621;82;21030;-40
2022/09/18 07:36:21;;;;;;;6.10;3.95;;;;;;;9.87;82.50;97937.52;1746570;82;20983;-41
2022/09/18 07:38:51;;;;;;;6.80;3.90;;;;;;;9.93;82.44;97935.73;1746566;82;20959;-41
2022/09/18 07:41:18;;;;;;;8.40;3.65;;;;;;;10.01;82.54;97932.56;1746536;82;20999;-40
2022/09/18 07:43:44;;;;;;;4.20;3.80;;;;;;;9.97;82.24;97935.89;1751395;82;21019;-41
2022/09/18 07:46:10;;;;;;;5.55;4.25;;;;;;;10.07;82.27;97927.66;1754843;82;20984;-42
2022/09/18 07:48:36;;;;;;;8.45;3.90;;;;;;;10.14;82.07;97931.99;1754855;82;21464;-40
2022/09/18 07:51:03;;;;;;;4.87;3.90;;;;;;;10.22;81.84;97936.17;1754777;81;21602;-41
2022/09/18 07:53:29;;;;;;;5.08;3.25;;;;;;;10.19;81.32;97937.26;1755079;82;20963;-41
2022/09/18 07:55:56;;;;;;;4.42;4.03;;;;;;;10.24;81.47;97928.19;1754786;82;21035;-41
2022/09/18 07:58:22;;;;;;;4.85;4.12;;;;;;;10.28;81.66;97930.48;1750776;82;21543;-41
2022/09/18 08:00:49;;;;;;;6.10;3.37;;;;;;;10.35;81.38;97937.42;1750137;82;21503;-42
2022/09/18 08:03:17;;;;;;;4.17;3.77;;;;;;;10.41;81.14;97930.89;1749998;82;20983;-41
2022/09/18 08:05:43;;;;;;;7.40;3.50;;;;;;;10.43;81.17;97935.55;1749777;82;21039;-41
2022/09/18 08:08:12;;;;;;;7.92;3.85;;;;;;;10.42;80.90;97933.38;1749837;82;21532;-41
2022/09/18 08:10:41;;;;;;;8.75;4.60;;;;;;;10.57;80.96;97935.34;1749944;82;20987;-42
2022/09/18 08:13:07;;;;;;;4.42;3.52;;;;;;;10.45;80.58;97938.41;1750062;82;20988;-41
2022/09/18 08:15:35;;;;;;;3.30;3.00;;;;;;;10.58;80.31;97931.73;1750261;82;20991;-42
2022/09/18 08:18:01;;;;;;;3.67;3.10;;;;;;;10.66;80.31;97932.45;1750259;82;21022;-41
2022/09/18 08:20:27;;;;;;;7.00;3.52;;;;;;;10.72;80.40;97940.71;1750259;82;21031;-42
2022/09/18 08:22:52;;;;;;;5.12;3.10;;;;;;;10.68;79.98;97935.34;1750282;82;20988;-41
2022/09/18 08:25:19;;;;;;;5.28;2.90;;;;;;;10.74;80.19;97932.22;1750260;82;20968;-41
2022/09/18 08:27:45;;;;;;;4.53;2.77;;;;;;;10.76;79.91;97930.30;1750415;81;20972;-42
2022/09/18 08:30:14;;;;;;;4.53;2.40;;;;;;;10.75;79.34;97932.59;1750295;82;21451;-41
2022/09/18 08:32:40;;;;;;;3.95;2.20;;;;;;;10.68;79.07;97930.08;1750224;82;20983;-42
2022/09/18 08:35:07;;;;;;;6.13;2.40;;;;;;;10.69;78.89;97935.68;1750602;82;20995;-41
2022/09/18 08:37:33;;;;;;;4.22;2.27;;;;;;;10.69;78.92;97931.73;1750362;82;20999;-41
2022/09/18 08:39:59;;;;;;;2.60;2.12;;;;;;;10.75;79.06;97935.22;1750395;82;21003;-42
2022/09/18 08:43:02;;;;;;;5.80;2.17;;;;;;;10.78;78.79;97941.19;1750234;82;21000;-41
2022/09/18 08:45:42;;;;;;;3.45;2.30;;;;;;;10.68;77.04;97930.08;1750247;80;21503;-42
2022/09/18 08:48:19;;;;;;;2.50;2.15;;;;;;;10.76;77.94;97934.73;1750280;82;21512;-41
2022/09/18 08:50:51;;;;;;;4.62;2.20;;;;;;;10.88;78.21;97935.10;1748471;82;21608;-41
2022/09/18 08:53:25;;;;;;;3.72;2.08;;;;;;;10.99;78.23;97938.66;1748628;82;21000;-41
2022/09/18 08:55:53;;;;;;;4.75;2.17;;;;;;;11.04;77.70;97941.77;1750193;82;21563;-41
2022/09/18 08:58:36;;;;;;;3.77;2.10;;;;;;;10.98;76.80;97942.27;1750146;82;20995;-43
2022/09/18 09:01:09;;;;;;;2.90;1.87;;;;;;;10.97;76.66;97946.70;1750107;82;20975;-41
2022/09/18 09:04:16;;;;;;;2.98;2.35;;;;;;;10.96;76.51;97939.75;1722662;82;21035;-40
2022/09/18 09:07:10;;;;;;;4.75;2.10;;;;;;;10.96;76.57;97943.70;1750208;82;21015;-41
2022/09/18 09:10:02;;;;;;;2.47;1.90;;;;;;;11.05;76.55;97940.34;1750328;82;21512;-41
2022/09/18 09:12:44;;;;;;;2.17;1.70;;;;;;;11.14;76.42;97939.61;1750077;82;21032;-41
2022/09/18 09:15:34;;;;;;;2.20;1.60;;;;;;;11.14;74.72;97938.30;1748748;80;21028;-41
2022/09/18 09:18:18;;;;;;;4.42;2.37;;;;;;;11.07;73.74;97931.02;1750175;82;21155;-41
2022/09/18 09:20:54;;;;;;;11.65;6.15;;;;;;;11.26;74.53;97940.91;1750126;82;21007;-41
2022/09/18 09:24:01;;;;;;;4.45;3.33;;;;;;;11.38;74.75;97933.84;1750114;82;21034;-41
2022/09/18 09:26:31;;;;;;;3.37;2.35;;;;;;;11.36;73.05;97937.91;1750117;82;20992;-41
2022/09/18 09:29:04;;;;;;;;;;;;;;;11.36;73.43;97941.03;1752239;82;20983;-41
2022/09/18 09:31:41;;;;;;;6.30;3.55;;;;;;;11.24;72.57;97941.05;1750065;82;20102;-41
2022/09/18 09:34:18;;;;;;;4.47;3.52;;;;;;;11.29;73.65;97936.72;1749963;82;21103;-41
2022/09/18 09:36:48;;;;;;;6.78;3.00;;;;;;;11.25;73.06;97940.56;1750318;82;20975;-40
2022/09/18 09:39:35;;;;;;;2.72;1.67;;;;;;;11.39;73.95;97943.39;1750149;82;21004;-40
2022/09/18 09:42:27;;;;;;;1.95;1.60;;;;;;;11.55;73.73;97941.23;1750291;82;21507;-40
2022/09/18 09:45:03;;;;;;;3.25;1.35;;;;;;;11.79;73.08;97935.75;1733361;82;21009;-41
2022/09/18 09:48:02;;;;;;;2.17;1.30;;;;;;;11.91;71.46;97937.88;1739473;81;20956;-41
2022/09/18 09:50:39;;;;;;;4.33;3.92;;;;;;;11.99;71.90;97938.09;1750833;82;21547;-42
2022/09/18 09:53:09;;;;;;;2.27;2.05;;;;;;;12.01;71.22;97941.44;1727831;82;21024;-41
2022/09/18 09:56:23;;;;;;;2.80;2.10;;;;;;;12.01;71.28;97941.92;1752066;82;20983;-42
2022/09/18 09:59:04;;;;;;;1.65;1.55;;;;;;;11.82;69.59;97945.19;1751983;82;21491;-41
2022/09/18 10:01:40;;;;;;;5.62;1.80;;;;;;;11.66;69.62;97942.96;1751956;81;21023;-41
2022/09/18 10:04:39;;;;;;;4.05;2.83;;;;;;;11.55;70.55;97941.69;1751937;81;20959;-41
2022/09/18 10:07:28;;;;;;;24.98;12.47;;;;;;;11.47;70.33;97954.98;1751945;82;20991;-41
2022/09/18 10:10:11;;;;;;;17.45;9.35;;;;;;;11.46;70.48;97949.84;1751766;82;20990;-41
2022/09/18 10:12:51;;;;;;;7.55;5.12;;;;;;;11.49;70.82;97962.27;1752127;82;20988;-41
2022/09/18 10:15:25;;;;;;;15.20;9.20;;;;;;;11.55;70.94;97964.06;1752057;81;20991;-41
2022/09/18 10:17:55;;;;;;;5.72;3.92;;;;;;;11.50;70.72;97963.13;1752063;82;21496;-41
2022/09/18 10:20:28;;;;;;;5.53;3.58;;;;;;;11.58;71.17;97959.88;1751717;82;20987;-42
2022/09/18 10:22:59;;;;;;;3.60;3.22;;;;;;;11.57;71.24;97966.95;1751983;82;20991;-41
2022/09/18 10:25:50;;;;;;;3.33;2.40;;;;;;;11.72;71.43;97967.02;1751939;82;21058;-41
2022/09/18 10:28:16;;;;;;;4.08;2.67;;;;;;;11.92;70.93;97964.59;1696755;84;21028;-41
2022/09/18 10:31:09;;;;;;;2.55;1.92;;;;;;;12.14;71.54;97967.60;1696788;83;21013;-41
2022/09/18 10:33:41;;;;;;;3.15;2.10;;;;;;;12.12;69.42;97971.34;1696715;84;21060;-41
2022/09/18 10:36:41;;;;;;;2.47;2.27;;;;;;;12.25;69.50;97970.17;1695983;84;21647;-41
2022/09/18 10:39:30;;;;;;;182.47;57.55;;;;;;;12.27;69.09;97972.20;1696793;84;21609;-40
2022/09/18 10:42:04;;;;;;;39.85;14.20;;;;;;;12.31;69.32;97968.00;1696708;84;21053;-41
2022/09/18 10:44:44;;;;;;;24.55;10.58;;;;;;;12.29;69.52;97974.22;1690860;84;21112;-41
2022/09/18 10:47:23;;;;;;;11.53;5.45;;;;;;;12.23;69.51;97971.28;1686231;85;21001;-42
2022/09/18 10:50:07;;;;;;;26.15;12.55;;;;;;;12.38;69.54;97970.48;1686603;84;21526;-41
2022/09/18 10:52:38;;;;;;;7.33;4.67;;;;;;;12.70;70.16;97973.50;1686600;85;21273;-41
2022/09/18 10:55:12;;;;;;;11.83;6.58;;;;;;;12.86;69.42;97969.91;1686624;85;21653;-41
2022/09/18 10:57:46;;;;;;;13.65;8.33;;;;;;;13.00;69.52;97968.23;1686394;85;21017;-50
2022/09/18 11:00:28;;;;;;;7.28;4.75;;;;;;;13.30;69.14;97967.88;1656519;86;21067;-42
2022/09/18 11:03:02;;;;;;;3.10;2.37;;;;;;;13.63;67.11;97974.64;1692138;84;21006;-41
2022/09/18 11:05:36;;;;;;;2.83;2.45;;;;;;;13.80;65.06;97968.34;1705247;84;21066;-49
2022/09/18 11:08:15;;;;;;;2.60;2.20;;;;;;;14.06;66.87;97977.04;1710933;84;21579;-42
2022/09/18 11:10:49;;;;;;;5.12;2.12;;;;;;;14.25;64.59;97977.54;1710763;84;21709;-42
2022/09/18 11:13:25;;;;;;;26.82;11.75;;;;;;;14.76;63.72;97964.45;1710896;84;20979;-42
2022/09/18 11:15:58;;;;;;;149.95;50.90;;;;;;;15.02;62.09;97966.45;1707244;83;21051;-42
2022/09/18 11:18:26;;;;;;;59.40;25.37;;;;;;;14.75;61.65;97969.39;1711067;84;20975;-42
2022/09/18 11:20:56;;;;;;;34.50;15.95;;;;;;;14.72;62.86;97969.20;1710930;84;21014;-42
2022/09/18 11:23:31;;;;;;;19.55;11.43;;;;;;;14.53;62.12;97960.77;1710939;84;21544;-42
2022/09/18 11:26:27;;;;;;;25.40;16.07;;;;;;;14.09;61.07;97968.34;1710936;84;20983;-42
2022/09/18 11:29:04;;;;;;;16.23;10.60;;;;;;;13.99;61.85;97975.45;1711054;84;21014;-41
2022/09/18 11:31:44;;;;;;;10.15;7.00;;;;;;;14.00;62.09;97961.25;1711057;84;21178;-42
2022/09/18 11:34:25;;;;;;;15.93;9.70;;;;;;;14.09;61.93;97974.13;1710919;84;20995;-42
2022/09/18 11:37:01;;;;;;;10.23;7.35;;;;;;;14.08;62.77;97966.69;1710938;84;21035;-42
2022/09/18 11:39:41;;;;;;;8.58;4.42;;;;;;;14.45;62.01;97961.16;1711121;84;21011;-41
2022/09/18 11:42:14;;;;;;;3.50;2.87;;;;;;;14.67;61.95;97970.61;1710961;84;21035;-42
2022/09/18 11:44:41;;;;;;;3.45;3.08;;;;;;;14.69;60.77;97966.00;1699286;84;21043;-43
2022/09/18 11:47:32;;;;;;;3.35;1.50;;;;;;;15.03;60.72;97965.48;1689847;84;21636;-42
2022/09/18 11:50:18;;;;;;;4.70;1.82;;;;;;;15.77;61.55;97958.41;1689664;85;21000;-42
2022/09/18 11:52:55;;;;;;;2.40;1.40;;;;;;;16.40;57.78;97958.30;1689296;84;21051;-41
2022/09/18 11:55:53;;;;;;;2.80;1.60;;;;;;;16.38;58.05;97968.23;1689766;84;21055;-43
2022/09/18 11:58:25;;;;;;;2.12;1.30;;;;;;;16.63;57.39;97967.92;1689551;84;21011;-43
2022/09/18 12:01:12;;;;;;;6.33;2.25;;;;;;;16.54;56.34;97964.05;1689488;84;21000;-41
2022/09/18 12:03:50;;;;;;;1.75;1.65;;;;;;;16.91;56.73;97968.28;1689664;85;21040;-41